sensor_id;sensor_type;location;lat;lon;timestamp;temperature;humidity
39925;DHT22;25592;49.986;11.618;2023-04-16T00:00:24;10.00;99.90
39925;DHT22;25592;49.986;11.618;2023-04-16T00:03:09;9.90;99.90
39925;DHT22;25592;49.986;11.618;2023-04-16T00:05:55;9.90;99.90
39925;DHT22;25592;49.986;11.618;2023-04-16T00:08:40;9.90;99.90
39925;DHT22;25592;49.986;11.618;2023-04-16T00:11:27;10.00;99.90
39925;DHT22;25592;49.986;11.618;2023-04-16T00:14:13;10.00;99.90
39925;DHT22;25592;49.986;11.618;2023-04-16T00:16:58;10.00;99.90
39925;DHT22;25592;49.986;11.618;2023-04-16T00:19:43;10.00;99.90
39925;DHT22;25592;49.986;11.618;2023-04-16T00:22:29;10.00;99.90
39925;DHT22;25592;49.986;11.618;2023-04-16T00:25:14;9.90;99.90
39925;DHT22;25592;49.986;11.618;2023-04-16T00:27:59;10.00;99.90
39925;DHT22;25592;49.986;11.618;2023-04-16T00:30:45;9.90;99.90
39925;DHT22;25592;49.986;11.618;2023-04-16T00:33:30;9.90;99.90
39925;DHT22;25592;49.986;11.618;2023-04-16T00:36:16;9.90;99.90
39925;DHT22;25592;49.986;11.618;2023-04-16T00:39:01;10.00;99.90
39925;DHT22;25592;49.986;11.618;2023-04-16T00:41:46;10.00;99.90
39925;DHT22;25592;49.986;11.618;2023-04-16T00:44:33;9.90;99.90
39925;DHT22;25592;49.986;11.618;2023-04-16T00:47:21;10.00;99.90
39925;DHT22;25592;49.986;11.618;2023-04-16T00:50:07;9.90;99.90
39925;DHT22;25592;49.986;11.618;2023-04-16T00:52:52;9.90;99.90
39925;DHT22;25592;49.986;11.618;2023-04-16T00:55:38;9.90;99.90
39925;DHT22;25592;49.986;11.618;2023-04-16T00:58:24;9.90;99.90
39925;DHT22;25592;49.986;11.618;2023-04-16T01:01:10;9.90;99.90
39925;DHT22;25592;49.986;11.618;2023-04-16T01:03:55;10.00;99.90
39925;DHT22;25592;49.986;11.618;2023-04-16T01:06:41;9.90;99.90
39925;DHT22;25592;49.986;11.618;2023-04-16T01:09:26;9.90;99.90
39925;DHT22;25592;49.986;11.618;2023-04-16T01:12:12;9.90;99.90
39925;DHT22;25592;49.986;11.618;2023-04-16T01:14:58;9.90;99.90
39925;DHT22;25592;49.986;11.618;2023-04-16T01:17:46;9.90;99.90
39925;DHT22;25592;49.986;11.618;2023-04-16T01:20:34;9.90;99.90
39925;DHT22;25592;49.986;11.618;2023-04-16T01:23:20;9.90;99.90
39925;DHT22;25592;49.986;11.618;2023-04-16T01:26:06;9.90;99.90
39925;DHT22;25592;49.986;11.618;2023-04-16T01:28:52;9.90;99.90
39925;DHT22;25592;49.986;11.618;2023-04-16T01:31:37;9.90;99.90
39925;DHT22;25592;49.986;11.618;2023-04-16T01:34:22;9.90;99.90
39925;DHT22;25592;49.986;11.618;2023-04-16T01:37:08;9.90;99.90
39925;DHT22;25592;49.986;11.618;2023-04-16T01:39:53;10.00;99.90
39925;DHT22;25592;49.986;11.618;2023-04-16T01:42:38;9.90;99.90
39925;DHT22;25592;49.986;11.618;2023-04-16T01:45:24;10.00;99.90
39925;DHT22;25592;49.986;11.618;2023-04-16T01:48:10;9.90;99.90
39925;DHT22;25592;49.986;11.618;2023-04-16T01:50:55;10.00;99.90
39925;DHT22;25592;49.986;11.618;2023-04-16T01:53:40;10.00;99.90
39925;DHT22;25592;49.986;11.618;2023-04-16T01:56:26;10.00;99.90
39925;DHT22;25592;49.986;11.618;2023-04-16T01:59:11;10.00;99.90
39925;DHT22;25592;49.986;11.618;2023-04-16T02:02:01;10.00;99.90
39925;DHT22;25592;49.986;11.618;2023-04-16T02:04:49;10.00;99.90
39925;DHT22;25592;49.986;11.618;2023-04-16T02:07:34;10.00;99.90
39925;DHT22;25592;49.986;11.618;2023-04-16T02:10:20;10.00;99.90
39925;DHT22;25592;49.986;11.618;2023-04-16T02:13:05;10.00;99.90
39925;DHT22;25592;49.986;11.618;2023-04-16T02:15:51;10.00;99.90
39925;DHT22;25592;49.986;11.618;2023-04-16T02:18:37;10.00;99.90
39925;DHT22;25592;49.986;11.618;2023-04-16T02:21:22;10.00;99.90
39925;DHT22;25592;49.986;11.618;2023-04-16T02:24:07;10.00;99.90
39925;DHT22;25592;49.986;11.618;2023-04-16T02:26:53;10.00;99.90
39925;DHT22;25592;49.986;11.618;2023-04-16T02:29:38;10.00;99.90
39925;DHT22;25592;49.986;11.618;2023-04-16T02:32:24;10.00;99.90
39925;DHT22;25592;49.986;11.618;2023-04-16T02:35:10;9.90;99.90
39925;DHT22;25592;49.986;11.618;2023-04-16T02:37:55;9.90;99.90
39925;DHT22;25592;49.986;11.618;2023-04-16T02:40:40;9.90;99.90
39925;DHT22;25592;49.986;11.618;2023-04-16T02:43:26;9.90;99.90
39925;DHT22;25592;49.986;11.618;2023-04-16T02:46:11;9.90;99.90
39925;DHT22;25592;49.986;11.618;2023-04-16T02:48:57;9.90;99.90
39925;DHT22;25592;49.986;11.618;2023-04-16T02:51:42;9.90;99.90
39925;DHT22;25592;49.986;11.618;2023-04-16T02:54:27;9.90;99.90
39925;DHT22;25592;49.986;11.618;2023-04-16T02:57:12;9.90;99.90
39925;DHT22;25592;49.986;11.618;2023-04-16T02:59:58;9.90;99.90
39925;DHT22;25592;49.986;11.618;2023-04-16T03:02:43;9.90;99.90
39925;DHT22;25592;49.986;11.618;2023-04-16T03:05:29;9.90;99.90
39925;DHT22;25592;49.986;11.618;2023-04-16T03:08:14;9.90;99.90
39925;DHT22;25592;49.986;11.618;2023-04-16T03:10:59;9.90;99.90
39925;DHT22;25592;49.986;11.618;2023-04-16T03:13:45;9.90;99.90
39925;DHT22;25592;49.986;11.618;2023-04-16T03:16:30;9.90;99.90
39925;DHT22;25592;49.986;11.618;2023-04-16T03:19:16;9.90;99.90
39925;DHT22;25592;49.986;11.618;2023-04-16T03:22:01;9.90;99.90
39925;DHT22;25592;49.986;11.618;2023-04-16T03:24:46;9.90;99.90
39925;DHT22;25592;49.986;11.618;2023-04-16T03:27:32;9.90;99.90
39925;DHT22;25592;49.986;11.618;2023-04-16T03:30:18;9.90;99.90
39925;DHT22;25592;49.986;11.618;2023-04-16T03:33:03;9.90;99.90
39925;DHT22;25592;49.986;11.618;2023-04-16T03:35:55;9.90;99.90
39925;DHT22;25592;49.986;11.618;2023-04-16T03:38:41;9.90;99.90
39925;DHT22;25592;49.986;11.618;2023-04-16T03:41:26;9.90;99.90
39925;DHT22;25592;49.986;11.618;2023-04-16T03:44:11;9.90;99.90
39925;DHT22;25592;49.986;11.618;2023-04-16T03:46:57;9.90;99.90
39925;DHT22;25592;49.986;11.618;2023-04-16T03:49:42;9.90;99.90
39925;DHT22;25592;49.986;11.618;2023-04-16T03:52:28;9.90;99.90
39925;DHT22;25592;49.986;11.618;2023-04-16T03:55:13;9.90;99.90
39925;DHT22;25592;49.986;11.618;2023-04-16T03:58:03;9.90;99.90
39925;DHT22;25592;49.986;11.618;2023-04-16T04:00:50;9.90;99.90
39925;DHT22;25592;49.986;11.618;2023-04-16T04:03:37;9.90;99.90
39925;DHT22;25592;49.986;11.618;2023-04-16T04:06:22;9.90;99.90
39925;DHT22;25592;49.986;11.618;2023-04-16T04:09:08;9.90;99.90
39925;DHT22;25592;49.986;11.618;2023-04-16T04:11:54;9.90;99.90
39925;DHT22;25592;49.986;11.618;2023-04-16T04:14:39;9.90;99.90
39925;DHT22;25592;49.986;11.618;2023-04-16T04:17:24;9.90;99.90
39925;DHT22;25592;49.986;11.618;2023-04-16T04:20:10;9.90;99.90
39925;DHT22;25592;49.986;11.618;2023-04-16T04:22:56;9.90;99.90
39925;DHT22;25592;49.986;11.618;2023-04-16T04:25:41;9.80;99.90
39925;DHT22;25592;49.986;11.618;2023-04-16T04:28:27;9.80;99.90
39925;DHT22;25592;49.986;11.618;2023-04-16T04:31:12;9.80;99.90
39925;DHT22;25592;49.986;11.618;2023-04-16T04:33:57;9.80;99.90
39925;DHT22;25592;49.986;11.618;2023-04-16T04:36:43;9.90;99.90
39925;DHT22;25592;49.986;11.618;2023-04-16T04:39:28;9.80;99.90
39925;DHT22;25592;49.986;11.618;2023-04-16T04:42:16;9.80;99.90
39925;DHT22;25592;49.986;11.618;2023-04-16T04:45:03;9.80;99.90
39925;DHT22;25592;49.986;11.618;2023-04-16T04:47:48;9.80;99.90
39925;DHT22;25592;49.986;11.618;2023-04-16T04:50:33;9.80;99.90
39925;DHT22;25592;49.986;11.618;2023-04-16T04:53:19;9.90;99.90
39925;DHT22;25592;49.986;11.618;2023-04-16T04:56:04;9.80;99.90
39925;DHT22;25592;49.986;11.618;2023-04-16T04:58:57;9.80;99.90
39925;DHT22;25592;49.986;11.618;2023-04-16T05:01:42;9.80;99.90
39925;DHT22;25592;49.986;11.618;2023-04-16T05:04:29;9.80;99.90
39925;DHT22;25592;49.986;11.618;2023-04-16T05:07:14;9.80;99.90
39925;DHT22;25592;49.986;11.618;2023-04-16T05:09:59;9.80;99.90
39925;DHT22;25592;49.986;11.618;2023-04-16T05:12:46;9.80;99.90
39925;DHT22;25592;49.986;11.618;2023-04-16T05:15:33;9.80;99.90
39925;DHT22;25592;49.986;11.618;2023-04-16T05:18:18;9.80;99.90
39925;DHT22;25592;49.986;11.618;2023-04-16T05:21:04;9.90;99.90
39925;DHT22;25592;49.986;11.618;2023-04-16T05:23:49;9.90;99.90
39925;DHT22;25592;49.986;11.618;2023-04-16T05:26:35;9.90;99.90
39925;DHT22;25592;49.986;11.618;2023-04-16T05:29:20;9.90;99.90
39925;DHT22;25592;49.986;11.618;2023-04-16T05:32:06;9.90;99.90
39925;DHT22;25592;49.986;11.618;2023-04-16T05:34:51;9.90;99.90
39925;DHT22;25592;49.986;11.618;2023-04-16T05:37:36;9.90;99.90
39925;DHT22;25592;49.986;11.618;2023-04-16T05:40:22;9.90;99.90
39925;DHT22;25592;49.986;11.618;2023-04-16T05:43:07;9.90;99.90
39925;DHT22;25592;49.986;11.618;2023-04-16T05:45:52;9.90;99.90
39925;DHT22;25592;49.986;11.618;2023-04-16T05:48:38;9.90;99.90
39925;DHT22;25592;49.986;11.618;2023-04-16T05:51:23;9.90;99.90
39925;DHT22;25592;49.986;11.618;2023-04-16T05:54:10;9.90;99.90
39925;DHT22;25592;49.986;11.618;2023-04-16T05:56:55;9.90;99.90
39925;DHT22;25592;49.986;11.618;2023-04-16T05:59:40;9.90;99.90
39925;DHT22;25592;49.986;11.618;2023-04-16T06:02:26;10.00;99.90
39925;DHT22;25592;49.986;11.618;2023-04-16T06:05:11;10.00;99.90
39925;DHT22;25592;49.986;11.618;2023-04-16T06:07:57;9.90;99.90
39925;DHT22;25592;49.986;11.618;2023-04-16T06:10:44;9.90;99.90
39925;DHT22;25592;49.986;11.618;2023-04-16T06:13:30;10.00;99.90
39925;DHT22;25592;49.986;11.618;2023-04-16T06:16:16;9.90;99.90
39925;DHT22;25592;49.986;11.618;2023-04-16T06:19:01;9.90;99.90
39925;DHT22;25592;49.986;11.618;2023-04-16T06:21:46;9.90;99.90
39925;DHT22;25592;49.986;11.618;2023-04-16T06:24:32;9.90;99.90
39925;DHT22;25592;49.986;11.618;2023-04-16T06:27:17;10.00;99.90
39925;DHT22;25592;49.986;11.618;2023-04-16T06:30:11;10.00;99.90
39925;DHT22;25592;49.986;11.618;2023-04-16T06:32:57;10.00;99.90
39925;DHT22;25592;49.986;11.618;2023-04-16T06:35:43;10.00;99.90
39925;DHT22;25592;49.986;11.618;2023-04-16T06:38:29;10.00;99.90
39925;DHT22;25592;49.986;11.618;2023-04-16T06:41:15;10.00;99.90
39925;DHT22;25592;49.986;11.618;2023-04-16T06:44:01;10.00;99.90
39925;DHT22;25592;49.986;11.618;2023-04-16T06:46:50;10.10;99.90
39925;DHT22;25592;49.986;11.618;2023-04-16T06:49:36;10.10;99.90
39925;DHT22;25592;49.986;11.618;2023-04-16T06:52:24;10.10;99.90
39925;DHT22;25592;49.986;11.618;2023-04-16T06:55:10;10.20;99.90
39925;DHT22;25592;49.986;11.618;2023-04-16T06:57:56;10.20;99.90
39925;DHT22;25592;49.986;11.618;2023-04-16T07:00:41;10.20;99.90
39925;DHT22;25592;49.986;11.618;2023-04-16T07:03:27;10.20;99.90
39925;DHT22;25592;49.986;11.618;2023-04-16T07:06:13;10.30;99.90
39925;DHT22;25592;49.986;11.618;2023-04-16T07:08:58;10.30;99.90
39925;DHT22;25592;49.986;11.618;2023-04-16T07:11:43;10.30;99.90
39925;DHT22;25592;49.986;11.618;2023-04-16T07:14:29;10.30;99.90
39925;DHT22;25592;49.986;11.618;2023-04-16T07:17:15;10.30;99.90
39925;DHT22;25592;49.986;11.618;2023-04-16T07:20:01;10.30;99.90
39925;DHT22;25592;49.986;11.618;2023-04-16T07:22:46;10.40;99.90
39925;DHT22;25592;49.986;11.618;2023-04-16T07:25:32;10.40;99.90
39925;DHT22;25592;49.986;11.618;2023-04-16T07:28:18;10.40;99.90
39925;DHT22;25592;49.986;11.618;2023-04-16T07:31:04;10.30;99.90
39925;DHT22;25592;49.986;11.618;2023-04-16T07:33:50;10.40;99.90
39925;DHT22;25592;49.986;11.618;2023-04-16T07:36:37;10.40;99.90
39925;DHT22;25592;49.986;11.618;2023-04-16T07:39:23;10.40;99.90
39925;DHT22;25592;49.986;11.618;2023-04-16T07:42:11;10.50;99.90
39925;DHT22;25592;49.986;11.618;2023-04-16T07:44:58;10.60;99.90
39925;DHT22;25592;49.986;11.618;2023-04-16T07:47:47;10.60;99.90
39925;DHT22;25592;49.986;11.618;2023-04-16T07:50:32;10.70;99.90
39925;DHT22;25592;49.986;11.618;2023-04-16T07:53:18;10.70;99.90
39925;DHT22;25592;49.986;11.618;2023-04-16T07:56:03;10.80;99.90
39925;DHT22;25592;49.986;11.618;2023-04-16T07:58:48;10.80;99.90
39925;DHT22;25592;49.986;11.618;2023-04-16T08:01:34;10.80;99.90
39925;DHT22;25592;49.986;11.618;2023-04-16T08:04:20;10.80;99.90
39925;DHT22;25592;49.986;11.618;2023-04-16T08:07:10;10.80;99.90
39925;DHT22;25592;49.986;11.618;2023-04-16T08:09:56;10.90;99.90
39925;DHT22;25592;49.986;11.618;2023-04-16T08:12:41;10.80;99.90
39925;DHT22;25592;49.986;11.618;2023-04-16T08:15:27;10.80;99.90
39925;DHT22;25592;49.986;11.618;2023-04-16T08:18:12;10.80;99.90
39925;DHT22;25592;49.986;11.618;2023-04-16T08:21:00;10.80;99.90
39925;DHT22;25592;49.986;11.618;2023-04-16T08:23:48;10.80;99.90
39925;DHT22;25592;49.986;11.618;2023-04-16T08:26:33;10.80;99.90
39925;DHT22;25592;49.986;11.618;2023-04-16T08:29:19;10.90;99.90
39925;DHT22;25592;49.986;11.618;2023-04-16T08:32:06;10.80;99.90
39925;DHT22;25592;49.986;11.618;2023-04-16T08:34:54;10.90;99.90
39925;DHT22;25592;49.986;11.618;2023-04-16T08:37:39;10.80;99.90
39925;DHT22;25592;49.986;11.618;2023-04-16T08:40:27;10.90;99.90
39925;DHT22;25592;49.986;11.618;2023-04-16T08:43:15;10.90;99.90
39925;DHT22;25592;49.986;11.618;2023-04-16T08:46:04;11.00;99.90
39925;DHT22;25592;49.986;11.618;2023-04-16T08:48:52;11.00;99.90
39925;DHT22;25592;49.986;11.618;2023-04-16T08:51:40;11.10;99.90
39925;DHT22;25592;49.986;11.618;2023-04-16T08:54:41;11.10;99.90
39925;DHT22;25592;49.986;11.618;2023-04-16T08:57:56;11.20;99.90
39925;DHT22;25592;49.986;11.618;2023-04-16T09:00:38;11.20;99.90
39925;DHT22;25592;49.986;11.618;2023-04-16T09:03:25;11.20;99.90
39925;DHT22;25592;49.986;11.618;2023-04-16T09:06:12;11.30;99.90
39925;DHT22;25592;49.986;11.618;2023-04-16T09:08:58;11.40;99.90
39925;DHT22;25592;49.986;11.618;2023-04-16T09:11:44;11.50;99.90
39925;DHT22;25592;49.986;11.618;2023-04-16T09:14:31;11.50;99.90
39925;DHT22;25592;49.986;11.618;2023-04-16T09:17:19;11.50;99.90
39925;DHT22;25592;49.986;11.618;2023-04-16T09:20:07;11.60;99.90
39925;DHT22;25592;49.986;11.618;2023-04-16T09:22:53;11.60;99.90
39925;DHT22;25592;49.986;11.618;2023-04-16T09:25:39;11.60;99.90
39925;DHT22;25592;49.986;11.618;2023-04-16T09:28:38;11.60;99.90
39925;DHT22;25592;49.986;11.618;2023-04-16T09:31:23;11.70;99.90
39925;DHT22;25592;49.986;11.618;2023-04-16T09:34:09;11.60;99.90
39925;DHT22;25592;49.986;11.618;2023-04-16T09:36:55;11.60;99.90
39925;DHT22;25592;49.986;11.618;2023-04-16T09:39:42;11.70;99.90
39925;DHT22;25592;49.986;11.618;2023-04-16T09:42:31;11.70;99.90
39925;DHT22;25592;49.986;11.618;2023-04-16T09:45:17;11.70;99.90
39925;DHT22;25592;49.986;11.618;2023-04-16T09:48:03;11.80;99.90
39925;DHT22;25592;49.986;11.618;2023-04-16T09:50:51;11.70;99.90
39925;DHT22;25592;49.986;11.618;2023-04-16T09:53:37;11.80;99.90
39925;DHT22;25592;49.986;11.618;2023-04-16T09:56:23;11.80;99.90
39925;DHT22;25592;49.986;11.618;2023-04-16T09:59:20;11.90;99.90
39925;DHT22;25592;49.986;11.618;2023-04-16T10:02:07;11.90;99.90
39925;DHT22;25592;49.986;11.618;2023-04-16T10:05:03;12.20;99.90
39925;DHT22;25592;49.986;11.618;2023-04-16T10:07:48;12.50;99.90
39925;DHT22;25592;49.986;11.618;2023-04-16T10:10:34;12.60;99.90
39925;DHT22;25592;49.986;11.618;2023-04-16T10:13:19;12.60;99.90
39925;DHT22;25592;49.986;11.618;2023-04-16T10:16:06;12.50;99.90
39925;DHT22;25592;49.986;11.618;2023-04-16T10:18:52;12.40;99.90
39925;DHT22;25592;49.986;11.618;2023-04-16T10:21:40;12.50;99.90
39925;DHT22;25592;49.986;11.618;2023-04-16T10:24:27;12.50;99.90
39925;DHT22;25592;49.986;11.618;2023-04-16T10:27:13;12.30;99.90
39925;DHT22;25592;49.986;11.618;2023-04-16T10:29:59;12.10;99.90
39925;DHT22;25592;49.986;11.618;2023-04-16T10:32:45;12.20;99.90
39925;DHT22;25592;49.986;11.618;2023-04-16T10:35:30;12.30;99.90
39925;DHT22;25592;49.986;11.618;2023-04-16T10:38:26;12.30;99.90
39925;DHT22;25592;49.986;11.618;2023-04-16T10:41:12;12.30;99.90
39925;DHT22;25592;49.986;11.618;2023-04-16T10:44:09;12.30;99.90
39925;DHT22;25592;49.986;11.618;2023-04-16T10:46:55;12.30;99.90
39925;DHT22;25592;49.986;11.618;2023-04-16T10:49:40;12.20;99.90
39925;DHT22;25592;49.986;11.618;2023-04-16T10:52:28;12.30;99.90
39925;DHT22;25592;49.986;11.618;2023-04-16T10:55:16;12.30;99.90
39925;DHT22;25592;49.986;11.618;2023-04-16T10:58:02;12.30;99.90
39925;DHT22;25592;49.986;11.618;2023-04-16T11:01:11;12.30;99.90
39925;DHT22;25592;49.986;11.618;2023-04-16T11:03:59;12.40;99.90
39925;DHT22;25592;49.986;11.618;2023-04-16T11:10:11;12.40;99.90
39925;DHT22;25592;49.986;11.618;2023-04-16T11:12:57;12.50;99.90
39925;DHT22;25592;49.986;11.618;2023-04-16T11:15:42;12.50;99.90
39925;DHT22;25592;49.986;11.618;2023-04-16T11:18:27;12.50;99.90
39925;DHT22;25592;49.986;11.618;2023-04-16T11:21:13;12.40;99.90
39925;DHT22;25592;49.986;11.618;2023-04-16T11:23:58;12.40;99.90
39925;DHT22;25592;49.986;11.618;2023-04-16T11:26:44;12.40;99.90
39925;DHT22;25592;49.986;11.618;2023-04-16T11:29:29;12.50;99.90
39925;DHT22;25592;49.986;11.618;2023-04-16T11:32:22;12.60;99.90
39925;DHT22;25592;49.986;11.618;2023-04-16T11:35:17;12.60;99.90
39925;DHT22;25592;49.986;11.618;2023-04-16T11:38:06;12.60;99.90
39925;DHT22;25592;49.986;11.618;2023-04-16T11:40:56;12.60;99.90
39925;DHT22;25592;49.986;11.618;2023-04-16T11:43:41;12.80;99.90
39925;DHT22;25592;49.986;11.618;2023-04-16T11:46:37;12.90;99.90
39925;DHT22;25592;49.986;11.618;2023-04-16T11:49:28;12.90;99.90
39925;DHT22;25592;49.986;11.618;2023-04-16T11:52:24;12.90;99.90
39925;DHT22;25592;49.986;11.618;2023-04-16T11:55:12;13.00;99.90
39925;DHT22;25592;49.986;11.618;2023-04-16T11:58:10;13.20;99.90
39925;DHT22;25592;49.986;11.618;2023-04-16T12:00:57;13.40;99.90
39925;DHT22;25592;49.986;11.618;2023-04-16T12:03:45;13.40;99.90
39925;DHT22;25592;49.986;11.618;2023-04-16T12:06:33;13.50;99.90
39925;DHT22;25592;49.986;11.618;2023-04-16T12:09:26;13.70;99.90
39925;DHT22;25592;49.986;11.618;2023-04-16T12:12:28;13.80;99.90
39925;DHT22;25592;49.986;11.618;2023-04-16T12:15:16;13.80;99.90
39925;DHT22;25592;49.986;11.618;2023-04-16T12:18:06;13.80;99.90
39925;DHT22;25592;49.986;11.618;2023-04-16T12:20:52;13.80;99.90
39925;DHT22;25592;49.986;11.618;2023-04-16T12:23:37;13.60;99.90
39925;DHT22;25592;49.986;11.618;2023-04-16T12:26:24;13.60;99.90
39925;DHT22;25592;49.986;11.618;2023-04-16T12:29:23;13.70;99.90
39925;DHT22;25592;49.986;11.618;2023-04-16T12:32:20;14.00;99.90
39925;DHT22;25592;49.986;11.618;2023-04-16T12:35:09;13.90;99.90
39925;DHT22;25592;49.986;11.618;2023-04-16T12:37:54;13.80;99.90
39925;DHT22;25592;49.986;11.618;2023-04-16T12:40:40;13.90;99.90
39925;DHT22;25592;49.986;11.618;2023-04-16T12:43:26;13.80;99.90
39925;DHT22;25592;49.986;11.618;2023-04-16T12:46:11;13.80;99.90
39925;DHT22;25592;49.986;11.618;2023-04-16T12:48:56;13.70;99.90
39925;DHT22;25592;49.986;11.618;2023-04-16T12:51:42;13.80;99.90
39925;DHT22;25592;49.986;11.618;2023-04-16T12:54:27;13.80;99.90
39925;DHT22;25592;49.986;11.618;2023-04-16T12:57:15;13.80;99.90
39925;DHT22;25592;49.986;11.618;2023-04-16T13:00:01;13.90;99.90
39925;DHT22;25592;49.986;11.618;2023-04-16T13:02:46;14.00;99.90
39925;DHT22;25592;49.986;11.618;2023-04-16T13:05:31;14.00;99.90
39925;DHT22;25592;49.986;11.618;2023-04-16T13:08:17;14.20;99.90
39925;DHT22;25592;49.986;11.618;2023-04-16T13:11:02;14.40;99.90
39925;DHT22;25592;49.986;11.618;2023-04-16T13:13:48;14.50;99.90
39925;DHT22;25592;49.986;11.618;2023-04-16T13:16:34;14.50;99.90
39925;DHT22;25592;49.986;11.618;2023-04-16T13:19:19;14.50;99.90
39925;DHT22;25592;49.986;11.618;2023-04-16T13:22:05;14.50;99.90
39925;DHT22;25592;49.986;11.618;2023-04-16T13:24:50;14.50;99.90
39925;DHT22;25592;49.986;11.618;2023-04-16T13:27:36;14.40;99.90
39925;DHT22;25592;49.986;11.618;2023-04-16T13:30:21;14.30;99.90
39925;DHT22;25592;49.986;11.618;2023-04-16T13:33:07;14.20;99.90
39925;DHT22;25592;49.986;11.618;2023-04-16T13:35:53;14.20;99.90
39925;DHT22;25592;49.986;11.618;2023-04-16T13:38:38;14.10;99.90
39925;DHT22;25592;49.986;11.618;2023-04-16T13:41:24;14.00;99.90
39925;DHT22;25592;49.986;11.618;2023-04-16T13:44:10;13.90;99.90
39925;DHT22;25592;49.986;11.618;2023-04-16T13:46:55;13.80;99.90
39925;DHT22;25592;49.986;11.618;2023-04-16T13:49:41;13.70;99.90
39925;DHT22;25592;49.986;11.618;2023-04-16T13:52:27;13.50;99.90
39925;DHT22;25592;49.986;11.618;2023-04-16T13:55:13;13.40;99.90
39925;DHT22;25592;49.986;11.618;2023-04-16T13:58:02;13.30;99.90
39925;DHT22;25592;49.986;11.618;2023-04-16T14:00:48;13.30;99.90
39925;DHT22;25592;49.986;11.618;2023-04-16T14:03:33;13.30;99.90
39925;DHT22;25592;49.986;11.618;2023-04-16T14:06:22;13.30;99.90
39925;DHT22;25592;49.986;11.618;2023-04-16T14:09:08;13.30;99.90
39925;DHT22;25592;49.986;11.618;2023-04-16T14:11:55;13.10;99.90
39925;DHT22;25592;49.986;11.618;2023-04-16T14:14:40;13.00;99.90
39925;DHT22;25592;49.986;11.618;2023-04-16T14:17:26;13.10;99.90
39925;DHT22;25592;49.986;11.618;2023-04-16T14:20:12;13.10;99.90
39925;DHT22;25592;49.986;11.618;2023-04-16T14:22:58;13.20;99.90
39925;DHT22;25592;49.986;11.618;2023-04-16T14:25:43;13.20;99.90
39925;DHT22;25592;49.986;11.618;2023-04-16T14:28:29;13.30;99.90
39925;DHT22;25592;49.986;11.618;2023-04-16T14:31:16;13.30;99.90
39925;DHT22;25592;49.986;11.618;2023-04-16T14:34:02;13.30;99.90
39925;DHT22;25592;49.986;11.618;2023-04-16T14:36:47;13.40;99.90
39925;DHT22;25592;49.986;11.618;2023-04-16T14:39:34;13.40;99.90
39925;DHT22;25592;49.986;11.618;2023-04-16T14:42:20;13.40;99.90
39925;DHT22;25592;49.986;11.618;2023-04-16T14:45:06;13.40;99.90
39925;DHT22;25592;49.986;11.618;2023-04-16T14:47:52;13.50;99.90
39925;DHT22;25592;49.986;11.618;2023-04-16T14:50:38;13.50;99.90
39925;DHT22;25592;49.986;11.618;2023-04-16T14:53:27;13.70;99.90
39925;DHT22;25592;49.986;11.618;2023-04-16T14:56:13;13.80;99.90
39925;DHT22;25592;49.986;11.618;2023-04-16T14:58:58;13.80;99.90
39925;DHT22;25592;49.986;11.618;2023-04-16T15:01:44;13.70;99.90
39925;DHT22;25592;49.986;11.618;2023-04-16T15:04:30;13.60;99.90
39925;DHT22;25592;49.986;11.618;2023-04-16T15:07:16;13.40;99.90
39925;DHT22;25592;49.986;11.618;2023-04-16T15:10:02;13.50;99.90
39925;DHT22;25592;49.986;11.618;2023-04-16T15:12:47;13.60;99.90
39925;DHT22;25592;49.986;11.618;2023-04-16T15:15:33;13.50;99.90
39925;DHT22;25592;49.986;11.618;2023-04-16T15:18:18;13.40;99.90
39925;DHT22;25592;49.986;11.618;2023-04-16T15:21:04;13.20;99.90
39925;DHT22;25592;49.986;11.618;2023-04-16T15:23:49;13.20;99.90
39925;DHT22;25592;49.986;11.618;2023-04-16T15:26:35;13.20;99.90
39925;DHT22;25592;49.986;11.618;2023-04-16T15:29:20;13.10;99.90
39925;DHT22;25592;49.986;11.618;2023-04-16T15:32:06;13.10;99.90
39925;DHT22;25592;49.986;11.618;2023-04-16T15:34:51;13.10;99.90
39925;DHT22;25592;49.986;11.618;2023-04-16T15:37:37;13.00;99.90
39925;DHT22;25592;49.986;11.618;2023-04-16T15:40:23;12.90;99.90
39925;DHT22;25592;49.986;11.618;2023-04-16T15:43:09;12.90;99.90
39925;DHT22;25592;49.986;11.618;2023-04-16T15:45:54;12.90;99.90
39925;DHT22;25592;49.986;11.618;2023-04-16T15:48:40;12.90;99.90
39925;DHT22;25592;49.986;11.618;2023-04-16T15:51:26;12.90;99.90
39925;DHT22;25592;49.986;11.618;2023-04-16T15:54:13;12.90;99.90
39925;DHT22;25592;49.986;11.618;2023-04-16T15:56:58;12.90;99.90
39925;DHT22;25592;49.986;11.618;2023-04-16T15:59:44;12.90;99.90
39925;DHT22;25592;49.986;11.618;2023-04-16T16:02:49;12.90;99.90
39925;DHT22;25592;49.986;11.618;2023-04-16T16:05:35;12.90;99.90
39925;DHT22;25592;49.986;11.618;2023-04-16T16:08:21;12.90;99.90
39925;DHT22;25592;49.986;11.618;2023-04-16T16:11:06;12.90;99.90
39925;DHT22;25592;49.986;11.618;2023-04-16T16:13:52;12.80;99.90
39925;DHT22;25592;49.986;11.618;2023-04-16T16:16:37;12.80;99.90
39925;DHT22;25592;49.986;11.618;2023-04-16T16:19:23;12.80;99.90
39925;DHT22;25592;49.986;11.618;2023-04-16T16:22:09;12.80;99.90
39925;DHT22;25592;49.986;11.618;2023-04-16T16:24:55;12.80;99.90
39925;DHT22;25592;49.986;11.618;2023-04-16T16:27:40;12.70;99.90
39925;DHT22;25592;49.986;11.618;2023-04-16T16:30:26;12.70;99.90
39925;DHT22;25592;49.986;11.618;2023-04-16T16:33:12;12.70;99.90
39925;DHT22;25592;49.986;11.618;2023-04-16T16:35:57;12.70;99.90
39925;DHT22;25592;49.986;11.618;2023-04-16T16:38:42;12.70;99.90
39925;DHT22;25592;49.986;11.618;2023-04-16T16:41:30;12.70;99.90
39925;DHT22;25592;49.986;11.618;2023-04-16T16:44:16;12.70;99.90
39925;DHT22;25592;49.986;11.618;2023-04-16T16:47:01;12.70;99.90
39925;DHT22;25592;49.986;11.618;2023-04-16T16:49:47;12.60;99.90
39925;DHT22;25592;49.986;11.618;2023-04-16T16:52:33;12.60;99.90
39925;DHT22;25592;49.986;11.618;2023-04-16T16:55:18;12.60;99.90
39925;DHT22;25592;49.986;11.618;2023-04-16T16:58:05;12.60;99.90
39925;DHT22;25592;49.986;11.618;2023-04-16T17:00:50;12.50;99.90
39925;DHT22;25592;49.986;11.618;2023-04-16T17:03:36;12.40;99.90
39925;DHT22;25592;49.986;11.618;2023-04-16T17:06:21;12.40;99.90
39925;DHT22;25592;49.986;11.618;2023-04-16T17:09:06;12.40;99.90
39925;DHT22;25592;49.986;11.618;2023-04-16T17:11:52;12.40;99.90
39925;DHT22;25592;49.986;11.618;2023-04-16T17:14:37;12.40;99.90
39925;DHT22;25592;49.986;11.618;2023-04-16T17:17:25;12.40;99.90
39925;DHT22;25592;49.986;11.618;2023-04-16T17:20:10;12.40;99.90
39925;DHT22;25592;49.986;11.618;2023-04-16T17:22:57;12.40;99.90